Time;durP1;ratioP1;P1;durP2;ratioP2;P2;SDS_P1;SDS_P2;PMS_P1;PMS_P2;Temp;Humidity;BMP_temperature;BMP_pressure;BME280_temperature;BME280_humidity;BME280_pressure;Samples;Min_cycle;Max_cycle;Signal;HPM_P1;HPM_P2
2023/01/07 00:01:26;;;;;;;10.70;9.93;;;7.70;1.00;;;;;;6267745;28;20502;-55
2023/01/07 00:04:29;;;;;;;10.43;9.73;;;7.50;1.00;;;;;;6282921;28;20233;-56
2023/01/07 00:07:33;;;;;;;10.53;9.70;;;7.70;1.00;;;;;;6283608;28;20253;-55
2023/01/07 00:10:36;;;;;;;10.07;9.37;;;7.70;1.00;;;;;;6282745;28;20229;-56
2023/01/07 00:13:39;;;;;;;10.03;9.27;;;7.70;1.00;;;;;;6284616;28;20392;-55
2023/01/07 00:16:42;;;;;;;10.00;9.30;;;7.60;1.00;;;;;;6283696;28;20225;-56
2023/01/07 00:19:45;;;;;;;9.07;8.57;;;7.50;1.00;;;;;;6268219;28;20238;-56
2023/01/07 00:22:51;;;;;;;9.87;9.17;;;7.70;1.00;;;;;;6272155;28;20427;-55
2023/01/07 00:26:00;;;;;;;9.60;8.90;;;7.60;1.00;;;;;;6283801;28;20233;-56
2023/01/07 00:29:04;;;;;;;9.50;8.63;;;7.40;1.00;;;;;;6282991;28;20260;-55
2023/01/07 00:32:07;;;;;;;10.27;9.50;;;7.50;1.00;;;;;;6291400;28;20240;-55
2023/01/07 00:35:22;;;;;;;10.33;9.33;;;7.50;1.00;;;;;;6279359;28;20236;-55
2023/01/07 00:38:26;;;;;;;9.73;8.93;;;7.30;1.00;;;;;;6274666;28;20302;-55
2023/01/07 00:41:29;;;;;;;9.33;8.63;;;7.60;1.00;;;;;;6283539;28;20229;-55
2023/01/07 00:44:33;;;;;;;8.97;8.27;;;7.50;1.00;;;;;;6267230;28;20240;-56
2023/01/07 00:47:36;;;;;;;8.73;8.17;;;7.50;1.00;;;;;;6258500;28;20234;-56
2023/01/07 00:50:39;;;;;;;8.67;8.07;;;7.40;1.00;;;;;;6258002;28;20299;-55
2023/01/07 00:53:43;;;;;;;8.90;8.40;;;7.40;1.00;;;;;;6258760;28;20616;-56
2023/01/07 00:56:46;;;;;;;8.97;8.37;;;7.50;1.00;;;;;;6258406;28;20545;-56
2023/01/07 00:59:49;;;;;;;8.00;7.60;;;7.50;1.00;;;;;;6258522;28;20234;-55
2023/01/07 01:02:53;;;;;;;8.40;7.80;;;7.30;1.00;;;;;;6284519;28;20246;-56
2023/01/07 01:06:01;;;;;;;8.50;7.70;;;7.30;1.00;;;;;;6279941;28;20229;-55
2023/01/07 01:09:06;;;;;;;8.60;8.00;;;7.20;1.00;;;;;;6280348;28;20256;-54
2023/01/07 01:12:09;;;;;;;8.87;8.37;;;7.10;1.00;;;;;;6283611;28;20423;-55
2023/01/07 01:15:14;;;;;;;8.67;8.10;;;7.20;1.00;;;;;;6280894;28;20236;-57
2023/01/07 01:18:17;;;;;;;7.97;7.47;;;7.20;1.00;;;;;;6282960;28;20780;-56
2023/01/07 01:21:20;;;;;;;8.50;7.73;;;7.00;1.00;;;;;;6282656;28;21556;-55
2023/01/07 01:24:25;;;;;;;8.20;7.60;;;7.40;1.00;;;;;;6276167;28;20252;-55
2023/01/07 01:27:30;;;;;;;7.83;7.33;;;7.20;1.00;;;;;;6257848;28;20234;-56
2023/01/07 01:30:33;;;;;;;8.40;7.80;;;7.20;1.00;;;;;;6257521;28;20276;-55
2023/01/07 01:33:36;;;;;;;7.80;7.30;;;7.00;1.00;;;;;;6282040;28;20734;-55
2023/01/07 01:36:39;;;;;;;7.97;7.37;;;6.90;1.00;;;;;;6278262;28;20676;-55
2023/01/07 01:39:43;;;;;;;6.77;6.40;;;7.00;1.00;;;;;;6282821;28;20235;-54
2023/01/07 01:42:46;;;;;;;7.60;7.10;;;7.00;1.00;;;;;;6276100;28;20238;-57
2023/01/07 01:45:49;;;;;;;7.13;6.73;;;7.00;1.00;;;;;;6257849;28;20242;-55
2023/01/07 01:48:56;;;;;;;8.50;7.93;;;7.00;1.00;;;;;;6257277;28;20237;-55
2023/01/07 01:52:04;;;;;;;7.33;6.83;;;7.20;1.00;;;;;;6267247;28;20256;-55
2023/01/07 01:55:11;;;;;;;7.70;7.20;;;7.00;1.00;;;;;;6266821;28;20237;-56
2023/01/07 01:58:16;;;;;;;7.90;7.20;;;7.00;1.00;;;;;;6257808;28;20675;-55
2023/01/07 02:01:19;;;;;;;7.63;7.07;;;7.00;1.00;;;;;;6257600;28;20238;-56
2023/01/07 02:04:26;;;;;;;7.33;6.83;;;7.10;1.00;;;;;;6281511;28;20237;-56
2023/01/07 02:07:29;;;;;;;7.80;7.10;;;7.00;1.00;;;;;;6280850;28;20229;-56
2023/01/07 02:10:34;;;;;;;7.63;7.23;;;6.90;1.00;;;;;;6279962;28;20244;-56
2023/01/07 02:13:48;;;;;;;7.23;6.77;;;6.90;1.00;;;;;;6257191;28;20238;-56
2023/01/07 02:16:58;;;;;;;6.90;6.40;;;7.00;1.00;;;;;;6259872;28;20733;-56
2023/01/07 02:20:25;;;;;;;6.93;6.53;;;7.00;1.00;;;;;;6252483;28;20238;-56
2023/01/07 02:24:19;;;;;;;6.93;6.53;;;6.90;1.00;;;;;;6262272;28;20235;-55
2023/01/07 02:27:35;;;;;;;7.20;6.80;;;7.10;1.00;;;;;;6236803;28;20234;-55
2023/01/07 02:31:14;;;;;;;8.50;7.80;;;6.90;1.00;;;;;;6261372;28;20234;-56
2023/01/07 02:34:25;;;;;;;7.90;7.30;;;6.90;1.00;;;;;;6264121;28;20720;-55
2023/01/07 02:37:37;;;;;;;7.73;7.30;;;7.10;1.00;;;;;;6274703;28;20558;-55
2023/01/07 02:40:50;;;;;;;9.40;8.70;;;7.00;1.00;;;;;;6274768;28;20288;-55
2023/01/07 02:44:01;;;;;;;9.93;9.13;;;7.00;1.00;;;;;;6285281;28;20237;-56
2023/01/07 02:47:12;;;;;;;9.63;8.73;;;7.00;1.00;;;;;;6286387;28;20552;-56
2023/01/07 02:50:16;;;;;;;9.50;8.83;;;7.00;1.00;;;;;;6285988;28;20355;-55
2023/01/07 02:53:20;;;;;;;9.90;9.20;;;7.10;1.00;;;;;;6282479;28;20233;-56
2023/01/07 02:56:34;;;;;;;9.60;8.80;;;6.90;1.00;;;;;;6261756;28;20715;-55
2023/01/07 03:00:02;;;;;;;9.17;8.27;;;6.90;1.00;;;;;;6261275;28;20238;-56
2023/01/07 03:03:15;;;;;;;10.00;9.30;;;7.10;1.00;;;;;;6275868;28;20232;-55
2023/01/07 03:06:37;;;;;;;9.73;8.83;;;7.00;1.00;;;;;;6277752;28;20237;-56
2023/01/07 03:09:49;;;;;;;10.17;9.30;;;7.10;1.00;;;;;;6280984;28;20236;-55
2023/01/07 03:12:56;;;;;;;9.43;8.73;;;6.80;1.00;;;;;;6285911;28;20732;-56
2023/01/07 03:16:05;;;;;;;9.90;9.10;;;7.10;1.00;;;;;;6283259;28;20622;-54
2023/01/07 03:19:12;;;;;;;10.20;9.40;;;7.00;1.00;;;;;;6261088;28;20583;-54
2023/01/07 03:22:19;;;;;;;9.80;9.10;;;6.80;1.00;;;;;;6261979;28;20226;-56
2023/01/07 03:25:24;;;;;;;11.83;10.73;;;6.80;1.00;;;;;;6262024;28;20245;-56
2023/01/07 03:28:30;;;;;;;10.67;9.77;;;6.90;1.00;;;;;;6285606;28;20244;-55
2023/01/07 03:31:35;;;;;;;10.53;9.73;;;7.00;1.00;;;;;;6287803;28;20245;-56
2023/01/07 03:34:39;;;;;;;12.13;11.13;;;7.00;1.00;;;;;;6287066;28;20303;-56
2023/01/07 03:37:45;;;;;;;10.83;9.83;;;7.00;1.00;;;;;;6285441;28;20589;-54
2023/01/07 03:40:48;;;;;;;11.30;10.23;;;7.00;1.00;;;;;;6279766;28;20244;-56
2023/01/07 03:43:50;;;;;;;11.70;10.70;;;7.10;1.00;;;;;;6285621;28;20240;-57
2023/01/07 03:46:54;;;;;;;12.10;11.10;;;7.30;1.00;;;;;;6284423;28;20237;-56
2023/01/07 03:49:57;;;;;;;12.00;10.90;;;6.90;1.00;;;;;;6272428;28;20253;-55
2023/01/07 03:53:01;;;;;;;13.27;12.07;;;6.90;1.00;;;;;;6260069;28;20229;-54
2023/01/07 03:56:05;;;;;;;12.70;11.57;;;6.80;1.00;;;;;;6259734;28;20257;-56
2023/01/07 03:59:08;;;;;;;11.93;10.93;;;7.20;1.00;;;;;;6268385;28;20242;-53
2023/01/07 04:02:11;;;;;;;15.13;12.40;;;7.00;1.00;;;;;;6287539;28;20240;-56
2023/01/07 04:05:14;;;;;;;14.03;12.10;;;7.00;1.00;;;;;;6281239;28;20593;-56
2023/01/07 04:08:18;;;;;;;13.10;12.00;;;6.80;1.00;;;;;;6275568;28;20241;-56
2023/01/07 04:11:21;;;;;;;13.87;12.50;;;7.00;1.00;;;;;;6284036;28;20233;-60
2023/01/07 04:14:24;;;;;;;11.53;10.43;;;6.90;1.00;;;;;;6284486;28;20229;-55
2023/01/07 04:17:27;;;;;;;13.73;12.40;;;7.10;1.00;;;;;;6272568;28;20230;-56
2023/01/07 04:20:31;;;;;;;13.47;12.37;;;6.90;1.00;;;;;;6268848;28;20252;-55
2023/01/07 04:23:35;;;;;;;13.40;12.20;;;7.00;1.00;;;;;;6284202;28;20225;-55
2023/01/07 04:26:38;;;;;;;12.07;11.07;;;7.10;1.00;;;;;;6262432;28;20233;-56
2023/01/07 04:29:41;;;;;;;11.57;10.67;;;6.80;1.00;;;;;;6254970;28;20237;-55
2023/01/07 04:32:44;;;;;;;14.50;13.10;;;6.90;1.00;;;;;;6252987;28;20472;-56
2023/01/07 04:35:47;;;;;;;12.63;11.50;;;6.60;1.00;;;;;;6282099;28;20236;-56
2023/01/07 04:38:51;;;;;;;13.97;12.77;;;6.70;1.00;;;;;;6281936;28;20249;-55
2023/01/07 04:41:54;;;;;;;14.67;13.33;;;7.00;1.00;;;;;;6277933;28;20261;-54
2023/01/07 04:44:57;;;;;;;15.77;14.13;;;6.70;1.00;;;;;;6285328;28;20234;-54
2023/01/07 04:48:00;;;;;;;16.10;14.47;;;6.80;1.00;;;;;;6284721;28;20237;-54
2023/01/07 04:51:03;;;;;;;15.43;13.93;;;6.70;1.00;;;;;;6273832;28;20257;-56
2023/01/07 04:54:08;;;;;;;15.90;14.30;;;7.00;1.00;;;;;;6286413;28;20229;-56
2023/01/07 04:57:11;;;;;;;15.47;14.07;;;7.00;1.00;;;;;;6278195;28;20498;-56
2023/01/07 05:00:14;;;;;;;15.70;13.87;;;6.80;1.00;;;;;;6279373;28;20260;-56
2023/01/07 05:03:18;;;;;;;14.10;12.80;;;6.90;1.00;;;;;;6290424;28;20244;-56
2023/01/07 05:06:21;;;;;;;14.53;13.03;;;6.90;1.00;;;;;;6281716;28;20233;-54
2023/01/07 05:09:26;;;;;;;13.93;12.70;;;7.00;1.00;;;;;;6285542;28;20240;-58
2023/01/07 05:12:28;;;;;;;14.53;13.03;;;7.30;1.00;;;;;;6274335;28;20260;-55
2023/01/07 05:15:31;;;;;;;13.20;11.93;;;7.10;1.00;;;;;;6278066;28;20244;-55
2023/01/07 05:18:34;;;;;;;12.10;11.10;;;7.20;1.00;;;;;;6289548;28;20236;-55
2023/01/07 05:21:38;;;;;;;12.70;11.60;;;7.30;1.00;;;;;;6286202;28;20234;-55
2023/01/07 05:24:42;;;;;;;14.70;13.20;;;7.20;1.00;;;;;;6281928;28;20240;-56
2023/01/07 05:27:45;;;;;;;13.77;12.57;;;7.10;1.00;;;;;;6285551;28;20241;-55
2023/01/07 05:30:48;;;;;;;13.63;12.53;;;7.20;1.00;;;;;;6282476;28;20229;-56
2023/01/07 05:33:51;;;;;;;14.13;12.77;;;7.10;1.00;;;;;;6280124;28;20237;-55
2023/01/07 05:36:54;;;;;;;13.40;12.07;;;7.20;1.00;;;;;;6286564;28;20233;-55
2023/01/07 05:39:58;;;;;;;12.07;11.07;;;7.50;1.00;;;;;;6284141;28;20252;-54
2023/01/07 05:43:01;;;;;;;11.30;10.40;;;7.30;1.00;;;;;;6274474;28;20561;-56
2023/01/07 05:46:05;;;;;;;12.50;11.27;;;7.30;1.00;;;;;;6282284;28;20607;-56
2023/01/07 05:49:08;;;;;;;14.00;12.80;;;7.30;1.00;;;;;;6276914;28;20238;-54
2023/01/07 05:52:11;;;;;;;14.07;12.77;;;7.30;1.00;;;;;;6287747;28;20236;-56
2023/01/07 05:55:15;;;;;;;13.23;12.03;;;7.40;1.00;;;;;;6279034;28;20229;-56
2023/01/07 05:58:18;;;;;;;10.93;10.03;;;7.40;1.00;;;;;;6289711;28;20243;-56
2023/01/07 06:01:21;;;;;;;11.23;10.33;;;7.50;1.00;;;;;;6285944;28;25640;-55
2023/01/07 06:04:24;;;;;;;15.27;13.97;;;7.60;1.00;;;;;;6290391;28;20825;-56
2023/01/07 06:07:27;;;;;;;15.60;14.10;;;7.40;1.00;;;;;;6283272;28;20239;-58
2023/01/07 06:10:32;;;;;;;15.07;13.77;;;7.40;1.00;;;;;;6283432;28;20244;-55
2023/01/07 06:13:35;;;;;;;16.10;14.43;;;7.50;1.00;;;;;;6292054;28;20245;-55
2023/01/07 06:16:38;;;;;;;13.33;11.97;;;7.60;1.00;;;;;;6283575;28;20240;-56
2023/01/07 06:19:41;;;;;;;12.70;11.53;;;7.50;1.00;;;;;;6284609;28;20324;-55
2023/01/07 06:22:44;;;;;;;13.33;11.97;;;7.50;1.00;;;;;;6284155;28;20635;-55
2023/01/07 06:25:48;;;;;;;16.20;14.57;;;7.50;1.00;;;;;;6283575;28;20237;-55
2023/01/07 06:28:51;;;;;;;19.07;15.57;;;7.70;1.00;;;;;;6276394;28;20233;-56
2023/01/07 06:31:54;;;;;;;18.00;14.50;;;7.60;1.00;;;;;;6278616;28;20236;-54
2023/01/07 06:34:57;;;;;;;17.43;15.27;;;7.70;1.00;;;;;;6280719;28;20229;-55
2023/01/07 06:38:00;;;;;;;15.00;13.60;;;7.90;1.00;;;;;;6282154;28;20233;-55
2023/01/07 06:41:05;;;;;;;14.77;13.27;;;7.70;1.00;;;;;;6276692;28;20248;-55
2023/01/07 06:44:08;;;;;;;14.77;13.30;;;7.70;1.00;;;;;;6293600;28;20237;-56
2023/01/07 06:47:11;;;;;;;15.70;13.53;;;7.70;1.00;;;;;;6277980;28;20234;-56
2023/01/07 06:50:14;;;;;;;14.10;12.73;;;7.70;1.00;;;;;;6284933;28;20268;-56
2023/01/07 06:53:17;;;;;;;15.77;14.17;;;7.70;1.00;;;;;;6283227;28;20242;-57
2023/01/07 06:56:21;;;;;;;13.57;12.27;;;7.70;1.00;;;;;;6291673;28;20233;-56
2023/01/07 06:59:24;;;;;;;14.03;12.63;;;7.70;1.00;;;;;;6296628;28;20491;-56
2023/01/07 07:02:28;;;;;;;12.10;11.20;;;7.70;1.00;;;;;;6279912;28;20844;-55
2023/01/07 07:05:31;;;;;;;11.93;11.03;;;7.80;1.00;;;;;;6288407;28;20244;-54
2023/01/07 07:08:34;;;;;;;12.17;10.90;;;7.80;1.00;;;;;;6283446;28;20233;-56
2023/01/07 07:11:39;;;;;;;12.17;11.07;;;7.80;1.00;;;;;;6283183;28;20222;-57
2023/01/07 07:14:42;;;;;;;11.37;10.47;;;7.80;1.00;;;;;;6283013;28;20760;-56
2023/01/07 07:17:45;;;;;;;12.10;11.00;;;7.80;1.00;;;;;;6284607;28;20237;-56
2023/01/07 07:20:49;;;;;;;13.93;10.37;;;7.90;1.00;;;;;;6282735;28;20233;-55
2023/01/07 07:23:52;;;;;;;12.30;11.30;;;7.80;1.00;;;;;;6277978;28;20287;-56
2023/01/07 07:26:56;;;;;;;11.67;10.67;;;7.80;1.00;;;;;;6271062;28;20271;-56
2023/01/07 07:29:59;;;;;;;11.07;10.17;;;7.80;1.00;;;;;;6273363;28;20233;-56
2023/01/07 07:33:03;;;;;;;10.93;10.03;;;7.80;1.00;;;;;;6279365;28;20244;-56
2023/01/07 07:36:06;;;;;;;11.47;10.53;;;7.90;1.00;;;;;;6286770;28;20229;-56
2023/01/07 07:39:11;;;;;;;13.40;12.00;;;7.80;1.00;;;;;;6285625;28;20372;-56
2023/01/07 07:42:15;;;;;;;13.20;12.00;;;7.90;1.00;;;;;;6268206;28;20237;-54
2023/01/07 07:45:18;;;;;;;14.40;11.10;;;7.80;1.00;;;;;;6278392;28;20236;-54
2023/01/07 07:48:21;;;;;;;13.60;12.23;;;7.90;1.00;;;;;;6271472;28;20287;-56
2023/01/07 07:51:24;;;;;;;12.63;11.43;;;7.80;1.00;;;;;;6268611;28;20230;-56
2023/01/07 07:54:27;;;;;;;13.00;11.57;;;7.80;1.00;;;;;;6284614;28;20573;-56
2023/01/07 07:57:32;;;;;;;17.80;15.37;;;7.90;1.00;;;;;;6271414;28;20229;-56
2023/01/07 08:00:35;;;;;;;14.83;12.43;;;7.90;1.00;;;;;;6283928;28;20229;-55
2023/01/07 08:03:38;;;;;;;12.17;11.27;;;7.90;1.00;;;;;;6271203;28;20244;-56
2023/01/07 08:06:41;;;;;;;13.17;10.67;;;7.90;1.00;;;;;;6275486;28;20232;-59
2023/01/07 08:09:44;;;;;;;12.10;11.13;;;7.90;1.00;;;;;;6278178;28;20243;-56
2023/01/07 08:12:49;;;;;;;11.73;10.73;;;8.00;1.00;;;;;;6284729;28;20236;-57
2023/01/07 08:15:52;;;;;;;11.47;10.47;;;8.00;1.00;;;;;;6267335;28;20230;-56
2023/01/07 08:18:55;;;;;;;12.33;10.57;;;8.00;1.00;;;;;;6279083;28;20244;-56
2023/01/07 08:21:58;;;;;;;12.17;11.07;;;8.00;1.00;;;;;;6288657;28;20764;-55
2023/01/07 08:25:01;;;;;;;11.23;10.30;;;8.00;1.00;;;;;;6278755;28;20275;-55
2023/01/07 08:28:06;;;;;;;10.43;9.70;;;8.00;1.00;;;;;;6291736;28;20245;-56
2023/01/07 08:31:09;;;;;;;19.30;15.17;;;8.00;1.00;;;;;;6276434;28;20794;-55
2023/01/07 08:34:12;;;;;;;15.40;12.83;;;8.00;1.00;;;;;;6282031;28;20256;-55
2023/01/07 08:37:15;;;;;;;10.53;9.63;;;8.20;1.00;;;;;;6282067;28;20245;-55
2023/01/07 08:40:18;;;;;;;10.70;9.90;;;8.10;1.00;;;;;;6269180;28;21287;-57
2023/01/07 08:43:23;;;;;;;10.50;9.70;;;8.20;1.00;;;;;;6276910;28;20241;-57
2023/01/07 08:46:26;;;;;;;10.80;10.00;;;8.20;1.00;;;;;;6277857;28;20229;-54
2023/01/07 08:49:29;;;;;;;10.70;9.90;;;8.30;1.00;;;;;;6267666;28;20237;-56
2023/01/07 08:52:32;;;;;;;9.93;9.13;;;8.30;1.00;;;;;;6272096;28;20233;-55
2023/01/07 08:55:35;;;;;;;10.47;9.57;;;8.40;1.00;;;;;;6283463;28;20615;-53
2023/01/07 08:58:39;;;;;;;9.20;8.50;;;8.40;1.00;;;;;;6276211;28;20229;-56
2023/01/07 09:01:42;;;;;;;9.27;8.57;;;8.60;1.00;;;;;;6277356;28;20247;-57
2023/01/07 09:04:46;;;;;;;9.33;8.53;;;8.50;1.00;;;;;;6267901;28;20709;-55
2023/01/07 09:07:52;;;;;;;9.70;8.93;;;8.60;1.00;;;;;;6282653;28;20237;-57
2023/01/07 09:10:55;;;;;;;10.67;9.77;;;8.70;1.00;;;;;;6282761;28;20230;-55
2023/01/07 09:13:59;;;;;;;9.50;8.67;;;8.70;1.00;;;;;;6285779;28;20264;-55
2023/01/07 09:17:02;;;;;;;7.90;7.23;;;8.60;1.00;;;;;;6288631;28;20264;-56
2023/01/07 09:20:06;;;;;;;8.60;7.80;;;8.70;1.00;;;;;;6279151;28;20237;-56
2023/01/07 09:23:09;;;;;;;7.80;7.37;;;8.70;1.00;;;;;;6281922;28;20233;-55
2023/01/07 09:26:12;;;;;;;8.13;7.73;;;8.70;1.00;;;;;;6280519;28;20237;-56
2023/01/07 09:29:17;;;;;;;7.63;7.23;;;8.80;1.00;;;;;;6279081;28;20319;-55
2023/01/07 09:32:20;;;;;;;10.00;7.50;;;8.80;1.00;;;;;;6277544;28;20242;-56
2023/01/07 09:35:23;;;;;;;8.30;7.80;;;8.80;1.00;;;;;;6276824;28;20906;-54
2023/01/07 09:38:26;;;;;;;9.00;8.40;;;8.80;1.00;;;;;;6276387;28;20244;-55
2023/01/07 09:41:38;;;;;;;8.10;7.70;;;8.80;1.00;;;;;;6273951;28;20241;-56
2023/01/07 09:44:53;;;;;;;7.97;7.50;;;8.80;1.00;;;;;;6281102;28;20243;-56
2023/01/07 09:47:59;;;;;;;8.03;7.53;;;8.80;1.00;;;;;;6276808;28;20640;-56
2023/01/07 09:51:06;;;;;;;7.70;7.20;;;8.70;1.00;;;;;;6274465;28;20928;-56
2023/01/07 09:54:25;;;;;;;7.53;7.13;;;8.80;1.00;;;;;;6272340;28;20845;-57
2023/01/07 09:57:28;;;;;;;9.30;7.80;;;8.80;1.00;;;;;;6280276;28;20238;-55
2023/01/07 10:00:35;;;;;;;8.03;7.53;;;8.90;1.00;;;;;;6282421;28;20371;-56
2023/01/07 10:03:51;;;;;;;8.00;7.30;;;8.90;1.00;;;;;;6279773;28;20229;-56
2023/01/07 10:07:01;;;;;;;8.00;7.50;;;8.90;1.00;;;;;;6289552;28;20256;-56
2023/01/07 10:10:14;;;;;;;8.63;7.87;;;8.90;1.00;;;;;;6280111;28;20472;-56
2023/01/07 10:13:53;;;;;;;7.30;6.80;;;8.90;1.00;;;;;;6277533;28;20234;-55
2023/01/07 10:17:06;;;;;;;8.17;7.77;;;8.90;1.00;;;;;;6276774;28;20240;-57
2023/01/07 10:20:18;;;;;;;7.77;7.23;;;9.00;1.00;;;;;;6272137;28;20236;-55
2023/01/07 10:23:24;;;;;;;8.57;8.07;;;9.00;1.00;;;;;;6279430;28;20234;-54
2023/01/07 10:26:35;;;;;;;7.73;7.00;;;9.10;1.00;;;;;;6283811;28;20265;-56
2023/01/07 10:29:43;;;;;;;8.27;7.57;;;9.20;1.00;;;;;;6283307;28;20510;-55
2023/01/07 10:32:53;;;;;;;7.70;7.33;;;9.20;1.00;;;;;;6267506;28;20230;-57
2023/01/07 10:36:03;;;;;;;7.80;7.30;;;9.30;1.00;;;;;;6278071;28;20715;-56
2023/01/07 10:39:22;;;;;;;8.03;7.47;;;9.30;1.00;;;;;;6289876;28;20246;-56
2023/01/07 10:42:32;;;;;;;8.03;7.43;;;9.30;1.00;;;;;;6273908;28;20234;-56
2023/01/07 10:45:54;;;;;;;7.37;6.87;;;9.40;1.00;;;;;;6287284;28;20940;-55
2023/01/07 10:49:19;;;;;;;7.23;6.83;;;9.40;1.00;;;;;;6290155;28;20355;-56
2023/01/07 10:52:31;;;;;;;6.10;5.80;;;9.50;1.00;;;;;;6280390;28;20229;-56
2023/01/07 10:55:43;;;;;;;5.93;5.73;;;9.50;1.00;;;;;;6278532;28;20250;-54
2023/01/07 10:58:48;;;;;;;5.50;5.30;;;9.60;1.00;;;;;;6279340;28;20238;-56
2023/01/07 11:01:53;;;;;;;5.80;5.50;;;9.70;1.00;;;;;;6281973;28;20229;-54
2023/01/07 11:04:59;;;;;;;5.17;4.97;;;9.70;1.00;;;;;;6279921;28;20682;-55
2023/01/07 11:08:03;;;;;;;5.77;5.57;;;9.70;1.00;;;;;;6289204;28;20237;-55
2023/01/07 11:11:12;;;;;;;5.63;5.43;;;9.70;1.00;;;;;;6287924;28;20230;-56
2023/01/07 11:14:21;;;;;;;5.13;4.93;;;9.60;1.00;;;;;;6286570;28;20244;-56
2023/01/07 11:17:31;;;;;;;5.83;5.30;;;9.60;1.00;;;;;;6289832;28;20385;-56
2023/01/07 11:20:54;;;;;;;5.83;5.40;;;9.60;1.00;;;;;;6275581;28;20629;-56
2023/01/07 11:23:57;;;;;;;4.63;4.47;;;9.70;1.00;;;;;;6282550;28;20242;-55
2023/01/07 11:27:12;;;;;;;4.80;4.60;;;9.70;1.00;;;;;;6285886;28;20264;-56
2023/01/07 11:30:24;;;;;;;5.53;5.20;;;9.80;1.00;;;;;;6273950;28;20293;-56
2023/01/07 11:33:36;;;;;;;5.07;4.97;;;9.90;1.00;;;;;;6271443;28;20312;-56
2023/01/07 11:37:00;;;;;;;5.00;4.70;;;10.00;1.00;;;;;;6278117;28;20260;-55
2023/01/07 11:40:19;;;;;;;5.30;4.90;;;10.00;1.00;;;;;;6284894;28;20230;-55
2023/01/07 11:43:24;;;;;;;5.13;4.93;;;10.00;1.00;;;;;;6281915;28;20233;-56
2023/01/07 11:46:30;;;;;;;5.03;4.47;;;10.10;1.00;;;;;;6281725;28;20244;-56
2023/01/07 11:49:40;;;;;;;5.00;4.80;;;10.20;1.00;;;;;;6278559;28;20274;-55
2023/01/07 11:52:57;;;;;;;4.97;4.67;;;10.30;1.00;;;;;;6277106;28;20237;-56
2023/01/07 11:56:02;;;;;;;4.40;4.10;;;10.30;1.00;;;;;;6275449;28;20943;-56
2023/01/07 11:59:30;;;;;;;4.37;4.13;;;10.40;1.00;;;;;;6282629;28;20770;-56
2023/01/07 12:02:33;;;;;;;3.90;3.80;;;10.40;1.00;;;;;;6265913;28;20244;-55
2023/01/07 12:05:36;;;;;;;5.30;5.10;;;10.60;1.00;;;;;;6273378;28;20724;-60
2023/01/07 12:08:49;;;;;;;4.00;3.80;;;10.70;1.00;;;;;;6284165;28;20737;-55
2023/01/07 12:11:53;;;;;;;4.17;4.00;;;10.70;1.00;;;;;;6284379;28;20236;-55
2023/01/07 12:14:57;;;;;;;4.47;4.37;;;10.70;1.00;;;;;;6275631;28;20245;-54
2023/01/07 12:18:41;;;;;;;4.20;4.00;;;10.70;1.00;;;;;;6278879;28;20247;-56
2023/01/07 12:21:53;;;;;;;4.40;4.10;;;10.70;1.00;;;;;;6257264;28;20233;-55
2023/01/07 12:25:30;;;;;;;4.13;4.03;;;10.70;1.00;;;;;;6285830;28;20237;-60
2023/01/07 12:28:50;;;;;;;4.00;3.80;;;10.80;1.00;;;;;;6279006;28;20241;-58
2023/01/07 12:32:13;;;;;;;4.47;4.40;;;10.90;1.00;;;;;;6285002;28;20872;-55
2023/01/07 12:35:20;;;;;;;4.20;4.00;;;10.80;1.00;;;;;;6279753;28;20690;-55
2023/01/07 12:38:27;;;;;;;4.40;4.10;;;10.70;1.00;;;;;;6276190;28;20772;-55
2023/01/07 12:41:36;;;;;;;4.03;3.93;;;10.70;1.00;;;;;;6274466;28;20257;-55
2023/01/07 12:44:44;;;;;;;4.63;4.20;;;10.70;1.00;;;;;;6283478;28;20712;-55
2023/01/07 12:47:52;;;;;;;4.03;3.83;;;10.70;1.00;;;;;;6281023;28;20230;-55
2023/01/07 12:50:59;;;;;;;4.30;4.10;;;10.70;1.00;;;;;;6279831;28;20464;-55
2023/01/07 12:54:09;;;;;;;3.97;3.87;;;10.70;1.00;;;;;;6279867;28;20833;-55
2023/01/07 12:57:19;;;;;;;4.53;4.33;;;10.70;1.00;;;;;;6276124;28;20245;-55
2023/01/07 13:00:25;;;;;;;4.60;4.23;;;10.70;1.00;;;;;;6279286;28;20734;-55
2023/01/07 13:03:46;;;;;;;4.70;4.50;;;10.70;1.00;;;;;;6278320;28;20252;-55
2023/01/07 13:06:53;;;;;;;5.40;4.90;;;10.80;1.00;;;;;;6279525;28;20230;-56
2023/01/07 13:10:01;;;;;;;4.40;4.20;;;10.90;1.00;;;;;;6272997;28;20531;-55
2023/01/07 13:13:12;;;;;;;4.77;4.47;;;10.80;1.00;;;;;;6280098;28;20602;-56
2023/01/07 13:16:16;;;;;;;4.23;4.13;;;10.80;1.00;;;;;;6285587;28;20808;-57
2023/01/07 13:19:19;;;;;;;5.07;4.87;;;10.80;1.00;;;;;;6278937;28;20245;-55
2023/01/07 13:22:31;;;;;;;4.80;4.60;;;10.70;1.00;;;;;;6283714;28;20241;-56
2023/01/07 13:25:47;;;;;;;6.13;4.30;;;10.80;1.00;;;;;;6282031;28;20241;-56
2023/01/07 13:29:07;;;;;;;5.63;5.13;;;10.80;1.00;;;;;;6271821;28;20248;-54
2023/01/07 13:32:32;;;;;;;5.10;4.90;;;10.80;1.00;;;;;;6283666;28;20315;-56
2023/01/07 13:35:57;;;;;;;5.57;5.23;;;10.80;1.00;;;;;;6280191;28;20491;-57
2023/01/07 13:39:22;;;;;;;5.33;5.03;;;10.80;1.00;;;;;;6282898;28;20477;-55
2023/01/07 13:42:35;;;;;;;9.97;9.03;;;10.70;1.00;;;;;;6282618;28;20570;-54
2023/01/07 13:45:46;;;;;;;5.00;4.80;;;10.70;1.00;;;;;;6284115;28;20229;-56
2023/01/07 13:48:50;;;;;;;4.57;4.27;;;10.60;1.00;;;;;;6282113;28;20233;-56
2023/01/07 13:51:54;;;;;;;4.20;4.10;;;10.60;1.00;;;;;;6284715;28;20524;-57
2023/01/07 13:55:00;;;;;;;4.20;4.10;;;10.50;1.00;;;;;;6284079;28;20253;-55
2023/01/07 13:58:18;;;;;;;5.40;5.10;;;10.50;1.00;;;;;;6284648;28;20721;-56
2023/01/07 14:01:24;;;;;;;5.30;4.80;;;10.40;1.00;;;;;;6280630;28;20232;-56
2023/01/07 14:04:35;;;;;;;4.90;4.70;;;10.40;1.00;;;;;;6265208;28;20287;-56
2023/01/07 14:07:45;;;;;;;4.90;4.57;;;10.40;1.00;;;;;;6283765;28;20243;-55
2023/01/07 14:10:53;;;;;;;5.07;4.67;;;10.30;1.00;;;;;;6277401;28;20225;-54
2023/01/07 14:14:04;;;;;;;5.10;4.80;;;10.30;1.00;;;;;;6286836;28;20226;-54
2023/01/07 14:17:19;;;;;;;4.37;4.17;;;10.20;1.00;;;;;;6287908;28;20737;-56
2023/01/07 14:20:29;;;;;;;4.17;3.97;;;10.20;1.00;;;;;;6286377;28;20312;-54
2023/01/07 14:23:39;;;;;;;4.57;4.37;;;10.20;1.00;;;;;;6283989;28;20229;-56
2023/01/07 14:26:52;;;;;;;6.27;5.03;;;10.20;1.00;;;;;;6280168;28;20237;-56
2023/01/07 14:29:56;;;;;;;5.70;5.30;;;10.20;1.00;;;;;;6288755;28;20471;-55
2023/01/07 14:33:20;;;;;;;5.10;4.90;;;10.10;1.00;;;;;;6281024;28;20233;-55
2023/01/07 14:36:23;;;;;;;5.00;4.80;;;10.10;1.00;;;;;;6282039;28;20688;-56
2023/01/07 14:39:34;;;;;;;4.50;4.30;;;10.10;1.00;;;;;;6287371;28;22585;-56
2023/01/07 14:42:42;;;;;;;5.63;5.13;;;10.10;1.00;;;;;;6283193;28;20286;-56
2023/01/07 14:45:56;;;;;;;4.60;4.40;;;10.10;1.00;;;;;;6285213;28;20252;-55
2023/01/07 14:49:37;;;;;;;6.23;5.73;;;10.00;1.00;;;;;;6287961;28;20230;-55
2023/01/07 14:53:10;;;;;;;9.13;8.43;;;10.00;1.00;;;;;;6283054;28;20234;-55
2023/01/07 14:56:33;;;;;;;11.77;10.10;;;9.90;1.00;;;;;;6273676;28;20241;-55
2023/01/07 15:00:03;;;;;;;12.90;10.70;;;9.80;1.00;;;;;;6270478;28;20238;-56
2023/01/07 15:03:45;;;;;;;17.10;11.73;;;9.70;1.00;;;;;;6284134;28;20316;-55
2023/01/07 15:06:54;;;;;;;14.80;12.63;;;9.60;1.00;;;;;;6245884;28;20253;-56
2023/01/07 15:16:45;;;;;;;13.23;11.13;;;9.40;1.00;;;;;;6285261;28;20687;-57
2023/01/07 15:19:48;;;;;;;12.00;10.63;;;9.30;1.00;;;;;;6288723;28;20718;-56
2023/01/07 15:23:08;;;;;;;15.83;12.77;;;9.20;1.00;;;;;;6281920;28;20260;-55
2023/01/07 15:26:17;;;;;;;15.73;13.30;;;9.20;1.00;;;;;;6279238;28;20238;-55
2023/01/07 15:29:27;;;;;;;18.60;13.90;;;9.20;1.00;;;;;;6279141;28;20247;-55
2023/01/07 15:32:40;;;;;;;18.83;13.80;;;9.20;1.00;;;;;;6278463;28;20229;-55
2023/01/07 15:35:44;;;;;;;19.07;15.40;;;9.10;1.00;;;;;;6274229;28;20225;-56
2023/01/07 15:38:52;;;;;;;14.40;12.63;;;9.10;1.00;;;;;;6286383;28;20239;-56
2023/01/07 15:41:57;;;;;;;17.87;13.77;;;9.10;1.00;;;;;;6281662;28;20236;-55
2023/01/07 15:45:00;;;;;;;14.37;12.67;;;9.10;1.00;;;;;;6283025;28;20240;-55
2023/01/07 15:48:11;;;;;;;14.33;12.83;;;9.20;1.00;;;;;;6283540;28;20233;-56
2023/01/07 15:51:15;;;;;;;13.83;11.80;;;9.10;1.00;;;;;;6283352;28;20610;-55
2023/01/07 15:54:25;;;;;;;15.13;13.53;;;9.20;1.00;;;;;;6285115;28;20486;-55
2023/01/07 15:57:33;;;;;;;15.73;13.23;;;9.20;1.00;;;;;;6280823;28;20241;-55
2023/01/07 16:00:36;;;;;;;13.00;11.43;;;9.20;1.00;;;;;;6279706;28;20237;-57
2023/01/07 16:03:43;;;;;;;10.63;9.53;;;9.20;1.00;;;;;;6277390;28;20230;-55
2023/01/07 16:06:46;;;;;;;9.87;8.37;;;9.30;1.00;;;;;;6283278;28;20697;-56
2023/01/07 16:09:51;;;;;;;9.93;8.40;;;9.40;1.00;;;;;;6276611;28;20229;-57
2023/01/07 16:12:55;;;;;;;8.10;7.43;;;9.40;1.00;;;;;;6283879;28;20236;-56
2023/01/07 16:16:01;;;;;;;7.67;6.40;;;9.40;1.00;;;;;;6284544;28;20256;-56
2023/01/07 16:19:05;;;;;;;6.33;5.83;;;9.40;1.00;;;;;;6288995;28;20566;-56
2023/01/07 16:22:13;;;;;;;6.87;6.37;;;9.50;1.00;;;;;;6283244;28;20233;-55
2023/01/07 16:25:23;;;;;;;5.93;5.63;;;9.50;1.00;;;;;;6274623;28;20237;-55
2023/01/07 16:28:28;;;;;;;7.07;6.37;;;9.60;1.00;;;;;;6267446;28;20261;-55
2023/01/07 16:31:34;;;;;;;7.27;6.57;;;9.60;1.00;;;;;;6275708;28;20225;-55
2023/01/07 16:34:59;;;;;;;6.67;6.20;;;9.70;1.00;;;;;;6278775;28;20244;-56
2023/01/07 16:38:02;;;;;;;6.03;5.73;;;9.70;1.00;;;;;;6279316;28;20302;-55